Time;durP1;ratioP1;P1;durP2;ratioP2;P2;SDS_P1;SDS_P2;PMS_P1;PMS_P2;Temp;Humidity;BMP_temperature;BMP_pressure;BME280_temperature;BME280_humidity;BME280_pressure;Samples;Min_cycle;Max_cycle;Signal;HPM_P1;HPM_P2
2023/01/03 00:01:32;;;;;;;2.80;1.10;;;11.20;92.40;;;;;;5011722;28;20021;-65
2023/01/03 00:03:59;;;;;;;3.78;1.10;;;11.20;92.50;;;;;;5005413;28;20025;-65
2023/01/03 00:06:29;;;;;;;6.28;1.35;;;11.20;93.10;;;;;;5013297;28;20059;-65
2023/01/03 00:08:57;;;;;;;1.10;1.00;;;11.20;93.60;;;;;;5016777;28;20116;-65
2023/01/03 00:14:22;;;;;;;4.18;1.00;;;11.10;93.70;;;;;;5013307;28;20058;-65
2023/01/03 00:16:53;;;;;;;3.67;1.20;;;11.10;93.70;;;;;;5012669;28;20831;-65
2023/01/03 00:19:20;;;;;;;4.32;0.95;;;11.00;93.70;;;;;;5012017;28;20117;-65
2023/01/03 00:21:45;;;;;;;6.60;1.08;;;11.00;93.90;;;;;;5009311;28;20084;-65
2023/01/03 00:24:11;;;;;;;2.45;1.08;;;10.90;93.70;;;;;;5010189;28;20048;-65
2023/01/03 00:26:39;;;;;;;4.10;1.10;;;10.90;93.70;;;;;;5008405;28;20036;-65
2023/01/03 00:29:05;;;;;;;5.68;1.35;;;10.80;93.70;;;;;;5013008;28;20478;-66
2023/01/03 00:31:32;;;;;;;1.27;1.00;;;10.90;94.00;;;;;;5017961;28;20117;-65
2023/01/03 00:33:58;;;;;;;2.75;1.10;;;10.90;94.00;;;;;;5011509;28;20034;-65
2023/01/03 00:36:24;;;;;;;2.25;1.02;;;10.90;94.00;;;;;;5012344;28;20034;-65
2023/01/03 00:38:49;;;;;;;2.53;1.27;;;10.90;93.70;;;;;;5010760;28;20032;-65
2023/01/03 00:41:18;;;;;;;1.05;0.95;;;10.90;93.60;;;;;;5007130;28;20021;-64
2023/01/03 00:43:46;;;;;;;5.78;1.00;;;10.80;93.60;;;;;;5010462;28;20072;-65
2023/01/03 00:46:13;;;;;;;2.08;1.17;;;10.80;93.60;;;;;;5008216;28;20049;-66
2023/01/03 00:48:40;;;;;;;1.05;1.00;;;10.70;93.60;;;;;;4993171;28;20033;-65
2023/01/03 00:51:13;;;;;;;1.83;0.90;;;10.60;93.70;;;;;;5012767;28;20051;-65
2023/01/03 00:53:40;;;;;;;4.68;1.60;;;10.60;93.80;;;;;;5010816;28;20786;-65
2023/01/03 00:56:11;;;;;;;2.00;1.10;;;10.50;93.80;;;;;;5014660;28;20037;-65
2023/01/03 00:58:37;;;;;;;2.75;1.20;;;10.40;93.80;;;;;;5007448;28;20839;-65
2023/01/03 01:01:24;;;;;;;2.58;0.90;;;10.40;93.90;;;;;;5011211;28;20029;-65
2023/01/03 01:03:58;;;;;;;1.20;1.10;;;10.30;94.00;;;;;;5006961;28;20080;-65
2023/01/03 01:06:29;;;;;;;3.63;1.10;;;10.20;94.10;;;;;;5017747;28;20033;-65
2023/01/03 01:08:58;;;;;;;1.50;1.10;;;10.20;94.30;;;;;;5007116;28;20034;-65
2023/01/03 01:11:27;;;;;;;3.33;1.02;;;10.20;94.40;;;;;;5009969;28;20049;-65
2023/01/03 01:13:53;;;;;;;1.33;0.90;;;10.20;94.40;;;;;;5015231;28;20753;-65
2023/01/03 01:16:22;;;;;;;2.45;1.15;;;10.20;94.20;;;;;;5017236;28;20026;-65
2023/01/03 01:18:49;;;;;;;2.53;1.00;;;10.10;94.20;;;;;;5012110;28;20030;-65
2023/01/03 01:21:18;;;;;;;2.35;1.08;;;10.10;94.30;;;;;;5013256;28;20039;-65
2023/01/03 01:23:45;;;;;;;1.45;1.10;;;10.10;94.30;;;;;;5007874;28;20026;-65
2023/01/03 01:26:14;;;;;;;4.18;1.98;;;10.00;94.40;;;;;;5015949;28;20758;-65
2023/01/03 01:28:41;;;;;;;3.22;1.20;;;10.00;94.40;;;;;;5004926;28;20151;-65
2023/01/03 01:31:09;;;;;;;3.65;1.20;;;10.00;94.50;;;;;;5012296;28;20103;-65
2023/01/03 01:33:36;;;;;;;3.65;1.15;;;10.00;94.60;;;;;;5008481;28;20037;-65
2023/01/03 01:36:11;;;;;;;4.13;1.35;;;10.10;94.60;;;;;;5011735;28;20084;-65
2023/01/03 01:38:37;;;;;;;3.00;1.10;;;10.10;94.70;;;;;;5011091;28;20033;-65
2023/01/03 01:41:03;;;;;;;1.65;1.17;;;10.20;94.60;;;;;;5010875;28;20034;-65
2023/01/03 01:46:23;;;;;;;3.83;1.50;;;10.30;94.40;;;;;;5009850;28;20733;-65
2023/01/03 01:48:55;;;;;;;2.20;1.38;;;10.20;94.40;;;;;;5009154;28;20072;-65
2023/01/03 01:51:23;;;;;;;2.55;1.30;;;10.30;94.30;;;;;;5007027;28;20030;-66
2023/01/03 01:53:53;;;;;;;2.63;1.40;;;10.20;94.30;;;;;;5009737;28;20036;-65
2023/01/03 01:56:26;;;;;;;2.92;1.40;;;10.10;94.20;;;;;;5016866;28;20048;-65
2023/01/03 01:58:54;;;;;;;4.05;1.70;;;10.10;94.30;;;;;;5015596;28;20037;-65
2023/01/03 02:01:22;;;;;;;4.78;1.25;;;10.00;94.10;;;;;;5015144;28;20040;-65
2023/01/03 02:04:01;;;;;;;2.60;1.40;;;9.90;94.20;;;;;;5014251;28;20030;-65
2023/01/03 02:06:30;;;;;;;5.53;1.83;;;9.80;94.20;;;;;;5012134;28;20041;-65
2023/01/03 02:08:56;;;;;;;1.95;1.23;;;9.70;94.00;;;;;;5014523;28;20029;-65
2023/01/03 02:11:43;;;;;;;3.50;1.20;;;9.70;94.00;;;;;;5007631;28;20068;-65
2023/01/03 02:14:31;;;;;;;3.70;1.50;;;9.60;93.90;;;;;;5012705;28;20123;-65
2023/01/03 02:17:13;;;;;;;4.18;1.10;;;9.50;93.90;;;;;;5007446;28;20038;-65
2023/01/03 02:20:13;;;;;;;3.85;1.33;;;9.50;93.80;;;;;;5015685;28;20044;-65
2023/01/03 02:22:48;;;;;;;3.72;1.35;;;9.40;93.60;;;;;;5013481;28;20038;-65
2023/01/03 02:25:56;;;;;;;3.33;1.43;;;9.30;93.40;;;;;;5013257;28;20027;-65
2023/01/03 02:28:24;;;;;;;1.98;1.00;;;9.20;93.50;;;;;;5003366;28;20045;-65
2023/01/03 02:31:09;;;;;;;2.72;0.80;;;9.20;93.50;;;;;;5012783;28;20056;-65
2023/01/03 02:33:52;;;;;;;3.03;1.10;;;9.20;93.50;;;;;;5011888;28;20044;-65
2023/01/03 02:36:40;;;;;;;0.98;0.88;;;9.10;93.50;;;;;;5012408;28;20030;-65
2023/01/03 02:39:13;;;;;;;2.78;1.08;;;9.00;93.40;;;;;;5016423;28;20032;-65
2023/01/03 02:45:19;;;;;;;1.70;0.98;;;8.90;93.60;;;;;;5016200;28;20029;-65
2023/01/03 02:48:00;;;;;;;3.08;1.10;;;8.80;93.70;;;;;;5009314;28;20030;-65
2023/01/03 02:50:31;;;;;;;2.20;1.17;;;8.80;93.70;;;;;;5014099;28;20465;-65
2023/01/03 02:53:02;;;;;;;1.77;1.40;;;8.80;93.80;;;;;;5008136;28;20088;-65
2023/01/03 02:55:31;;;;;;;2.83;1.40;;;8.80;93.70;;;;;;5019674;28;20485;-65
2023/01/03 02:58:13;;;;;;;6.30;1.77;;;8.70;93.80;;;;;;5009001;28;20921;-65
2023/01/03 03:00:42;;;;;;;5.13;1.60;;;8.70;93.70;;;;;;5013214;28;20053;-65
2023/01/03 03:03:15;;;;;;;2.90;1.25;;;8.70;93.50;;;;;;5016695;28;20099;-65
2023/01/03 03:05:51;;;;;;;3.38;1.20;;;8.70;93.50;;;;;;5016111;28;20132;-64
2023/01/03 03:08:17;;;;;;;3.25;1.15;;;8.70;93.30;;;;;;5014350;28;20041;-65
2023/01/03 03:13:36;;;;;;;2.47;1.17;;;8.60;93.10;;;;;;5011997;28;20040;-65
2023/01/03 03:25:21;;;;;;;3.13;1.20;;;8.60;93.20;;;;;;5013208;28;20043;-65
2023/01/03 03:30:39;;;;;;;4.68;1.10;;;8.50;92.70;;;;;;5008481;28;20440;-65
2023/01/03 03:33:05;;;;;;;3.70;1.00;;;8.40;92.80;;;;;;5015597;28;20124;-65
2023/01/03 03:35:37;;;;;;;3.67;1.10;;;8.50;92.80;;;;;;5009756;28;20033;-65
2023/01/03 03:38:09;;;;;;;1.95;1.00;;;8.40;92.80;;;;;;5011275;28;20025;-65
2023/01/03 03:46:30;;;;;;;2.05;1.17;;;8.30;92.60;;;;;;5020549;28;20025;-65
2023/01/03 03:51:59;;;;;;;5.00;1.10;;;8.20;92.90;;;;;;5015822;28;20129;-65
2023/01/03 03:54:27;;;;;;;5.45;1.17;;;8.20;92.90;;;;;;5010173;28;20036;-65
2023/01/03 03:57:03;;;;;;;3.10;1.20;;;8.20;92.90;;;;;;5011853;28;20026;-65
2023/01/03 03:59:30;;;;;;;4.10;1.50;;;8.10;93.00;;;;;;5009742;28;20044;-65
2023/01/03 04:01:59;;;;;;;2.20;1.13;;;8.20;93.00;;;;;;5014444;28;20037;-65
2023/01/03 04:04:31;;;;;;;4.38;1.05;;;8.10;93.00;;;;;;5010223;28;20954;-65
2023/01/03 04:06:57;;;;;;;1.90;1.10;;;8.10;93.10;;;;;;5015251;28;20044;-65
2023/01/03 04:09:23;;;;;;;2.47;1.30;;;8.10;93.10;;;;;;5015195;28;20446;-65
2023/01/03 04:11:49;;;;;;;1.55;0.98;;;8.10;93.10;;;;;;5014520;28;20053;-64
2023/01/03 04:14:15;;;;;;;1.05;0.90;;;8.10;93.20;;;;;;5010698;28;20041;-65
2023/01/03 04:16:40;;;;;;;2.97;1.50;;;8.00;93.30;;;;;;5011526;28;20065;-65
2023/01/03 04:19:06;;;;;;;5.47;1.50;;;8.00;93.50;;;;;;4988325;28;20041;-65
2023/01/03 04:21:32;;;;;;;3.05;1.60;;;8.00;93.60;;;;;;5013372;28;20056;-65
2023/01/03 04:23:58;;;;;;;2.83;1.27;;;8.00;93.70;;;;;;5007318;28;20029;-65
2023/01/03 04:26:23;;;;;;;3.22;1.30;;;8.00;94.00;;;;;;5017385;28;20045;-65
2023/01/03 04:28:50;;;;;;;3.00;1.30;;;8.00;94.20;;;;;;5000484;28;20060;-65
2023/01/03 04:31:16;;;;;;;5.50;1.40;;;8.00;94.30;;;;;;5013241;28;20038;-64
2023/01/03 04:33:42;;;;;;;3.95;1.27;;;8.00;94.40;;;;;;5013878;28;20091;-65
2023/01/03 04:36:08;;;;;;;3.15;1.88;;;7.90;94.50;;;;;;5008213;28;20088;-65
2023/01/03 04:38:34;;;;;;;3.40;1.83;;;7.90;94.50;;;;;;5011832;28;20064;-65
2023/01/03 04:41:04;;;;;;;5.22;1.58;;;7.90;94.60;;;;;;5009166;28;20049;-65
2023/01/03 04:46:14;;;;;;;4.95;1.50;;;7.90;94.70;;;;;;5010719;28;20030;-65
2023/01/03 04:48:40;;;;;;;3.85;1.90;;;7.90;94.60;;;;;;5013826;28;20044;-65
2023/01/03 04:51:06;;;;;;;7.18;1.90;;;7.90;94.60;;;;;;5013546;28;20033;-65
2023/01/03 04:53:32;;;;;;;3.83;1.75;;;7.80;94.60;;;;;;5017709;28;20037;-65
2023/01/03 04:55:57;;;;;;;2.20;1.38;;;7.80;94.50;;;;;;5009381;28;20085;-65
2023/01/03 04:58:23;;;;;;;3.03;1.55;;;7.80;94.50;;;;;;5019454;28;20041;-66
2023/01/03 05:00:49;;;;;;;2.55;1.40;;;7.80;94.40;;;;;;5007604;28;20033;-65
2023/01/03 05:03:15;;;;;;;1.60;1.20;;;7.70;94.40;;;;;;5010655;28;20775;-66
2023/01/03 05:05:41;;;;;;;2.15;1.40;;;7.70;94.50;;;;;;5007425;28;20034;-66
2023/01/03 05:08:10;;;;;;;3.50;1.40;;;7.70;94.40;;;;;;5014088;28;20441;-65
2023/01/03 05:10:39;;;;;;;2.45;1.38;;;7.70;94.40;;;;;;5015320;28;20517;-65
2023/01/03 05:13:06;;;;;;;3.00;1.60;;;7.70;94.60;;;;;;5009944;28;20049;-66
2023/01/03 05:15:37;;;;;;;5.85;1.52;;;7.70;94.60;;;;;;5011511;28;20092;-66
2023/01/03 05:18:04;;;;;;;3.08;1.10;;;7.70;94.50;;;;;;4991132;28;20553;-66
2023/01/03 05:26:04;;;;;;;1.23;1.00;;;7.60;94.20;;;;;;5011002;28;20037;-66
2023/01/03 05:28:31;;;;;;;2.10;1.13;;;7.50;94.40;;;;;;5014919;28;20064;-65
2023/01/03 05:30:57;;;;;;;2.28;1.15;;;7.50;94.50;;;;;;5010135;28;20034;-65
2023/01/03 05:33:23;;;;;;;2.45;1.40;;;7.40;94.50;;;;;;5018399;28;20518;-65
2023/01/03 05:35:49;;;;;;;3.72;1.10;;;7.40;94.50;;;;;;5019106;28;20034;-65
2023/01/03 05:38:15;;;;;;;2.53;1.33;;;7.30;94.50;;;;;;5015477;28;20029;-65
2023/01/03 05:40:41;;;;;;;3.67;1.10;;;7.30;94.80;;;;;;5016421;28;20025;-65
2023/01/03 05:43:08;;;;;;;3.28;1.42;;;7.30;94.50;;;;;;5010212;28;20051;-65
2023/01/03 05:45:40;;;;;;;2.75;1.00;;;7.30;94.50;;;;;;5016145;28;20106;-65
2023/01/03 05:48:08;;;;;;;2.70;1.27;;;7.30;94.60;;;;;;5011386;28;20038;-65
2023/01/03 05:50:34;;;;;;;2.45;1.40;;;7.20;94.50;;;;;;5014727;28;20449;-65
2023/01/03 05:53:00;;;;;;;2.50;1.20;;;7.20;94.60;;;;;;5020946;28;20406;-65
2023/01/03 05:55:25;;;;;;;2.15;1.27;;;7.20;94.60;;;;;;5019359;28;20044;-65
2023/01/03 05:57:52;;;;;;;1.95;1.10;;;7.10;94.60;;;;;;5017112;28;20552;-65
2023/01/03 06:00:18;;;;;;;6.57;1.83;;;7.10;94.60;;;;;;5018245;28;20681;-65
2023/01/03 06:02:44;;;;;;;3.88;1.48;;;7.10;94.60;;;;;;5012606;28;20062;-65
2023/01/03 06:05:10;;;;;;;3.45;1.88;;;7.00;94.60;;;;;;5014512;28;20125;-65
2023/01/03 06:07:36;;;;;;;2.65;1.70;;;7.00;94.50;;;;;;5010627;28;20044;-65
2023/01/03 06:10:04;;;;;;;5.05;1.50;;;7.00;94.50;;;;;;5015488;28;20029;-65
2023/01/03 06:12:31;;;;;;;5.45;1.48;;;7.00;94.60;;;;;;5008946;28;20112;-64
2023/01/03 06:14:57;;;;;;;5.78;1.70;;;6.90;94.70;;;;;;5017774;28;20554;-65
2023/01/03 06:20:08;;;;;;;3.10;1.60;;;6.90;94.90;;;;;;5015047;28;20026;-66
2023/01/03 06:22:34;;;;;;;4.47;1.35;;;6.90;94.90;;;;;;5013453;28;20446;-65
2023/01/03 06:25:00;;;;;;;4.50;1.83;;;6.80;94.90;;;;;;5010870;28;20133;-65
2023/01/03 06:27:26;;;;;;;4.57;1.30;;;6.80;95.00;;;;;;5016991;28;20167;-65
2023/01/03 06:29:51;;;;;;;2.97;1.48;;;6.80;95.20;;;;;;5012493;28;20029;-65
2023/01/03 06:32:17;;;;;;;1.85;1.20;;;6.80;95.30;;;;;;5009502;28;20421;-65
2023/01/03 06:34:43;;;;;;;3.05;1.70;;;6.80;95.40;;;;;;5016069;28;20033;-64
2023/01/03 06:37:09;;;;;;;2.67;1.73;;;6.80;95.40;;;;;;5022994;28;20033;-65
2023/01/03 06:39:35;;;;;;;3.35;1.83;;;6.80;95.40;;;;;;5015898;28;20044;-65
2023/01/03 06:53:10;;;;;;;6.30;2.15;;;6.80;95.30;;;;;;5014411;28;20022;-65
2023/01/03 06:53:11;;;;;;;5.93;2.15;;;6.70;95.30;;;;;;5014153;28;20632;-65
2023/01/03 06:55:38;;;;;;;2.47;1.48;;;6.70;95.40;;;;;;5014149;28;20068;-65
2023/01/03 06:58:03;;;;;;;5.20;2.05;;;6.60;95.40;;;;;;5012219;28;20026;-65
2023/01/03 07:00:30;;;;;;;3.65;1.60;;;6.70;95.50;;;;;;5018282;28;20026;-65
2023/01/03 07:02:56;;;;;;;4.95;1.70;;;6.70;95.40;;;;;;5017562;28;20038;-67
2023/01/03 07:05:22;;;;;;;3.13;1.55;;;6.70;95.30;;;;;;5017057;28;20025;-65
2023/01/03 07:07:48;;;;;;;3.40;1.63;;;6.70;95.30;;;;;;5002534;28;20040;-65
2023/01/03 07:10:14;;;;;;;2.85;1.45;;;6.60;95.10;;;;;;5012360;28;20038;-65
2023/01/03 07:15:23;;;;;;;5.10;1.88;;;6.60;95.20;;;;;;5017351;28;20079;-66
2023/01/03 07:17:49;;;;;;;3.50;2.00;;;6.50;95.30;;;;;;5015816;28;20034;-65
2023/01/03 07:20:15;;;;;;;3.97;2.08;;;6.50;95.40;;;;;;5018526;28;20081;-65
2023/01/03 07:22:41;;;;;;;3.05;1.83;;;6.50;95.40;;;;;;5015768;28;20112;-65
2023/01/03 07:25:07;;;;;;;5.80;1.75;;;6.50;95.40;;;;;;5009776;28;20032;-65
2023/01/03 07:27:33;;;;;;;7.07;1.90;;;6.50;95.30;;;;;;5011916;28;20493;-65
2023/01/03 07:29:58;;;;;;;5.88;2.35;;;6.50;95.20;;;;;;5010952;28;20041;-64
2023/01/03 07:32:24;;;;;;;4.90;2.25;;;6.50;95.20;;;;;;5010415;28;20029;-65
2023/01/03 07:34:50;;;;;;;6.97;2.33;;;6.50;95.10;;;;;;5012759;28;20021;-65
2023/01/03 07:37:16;;;;;;;7.45;2.20;;;6.50;95.00;;;;;;5016372;28;20042;-65
2023/01/03 07:39:42;;;;;;;4.45;2.03;;;6.40;95.10;;;;;;5013091;28;20026;-65
2023/01/03 07:44:53;;;;;;;15.13;10.65;;;6.40;95.40;;;;;;4996231;28;20055;-65
2023/01/03 07:47:19;;;;;;;19.88;12.38;;;6.40;95.50;;;;;;5015010;28;20025;-65
2023/01/03 07:49:45;;;;;;;14.77;9.50;;;6.40;95.60;;;;;;5009654;28;20792;-65
2023/01/03 07:52:10;;;;;;;17.48;11.98;;;6.40;95.70;;;;;;5010217;28;20044;-65
2023/01/03 07:54:36;;;;;;;15.10;11.05;;;6.30;95.80;;;;;;5010960;28;20030;-65
2023/01/03 07:57:02;;;;;;;10.88;8.65;;;6.30;95.90;;;;;;5007815;28;20391;-65
2023/01/03 07:59:28;;;;;;;10.20;6.00;;;6.30;95.90;;;;;;5017507;28;20036;-64
2023/01/03 08:01:54;;;;;;;7.57;4.68;;;6.40;96.10;;;;;;5012262;28;20029;-65
2023/01/03 08:04:19;;;;;;;5.28;2.90;;;6.40;96.10;;;;;;5013213;28;20057;-65
2023/01/03 08:06:45;;;;;;;6.03;2.90;;;6.40;96.20;;;;;;5010436;28;20063;-64
2023/01/03 08:14:40;;;;;;;5.75;3.30;;;6.50;96.20;;;;;;5012448;28;20033;-66
2023/01/03 08:17:06;;;;;;;8.95;3.53;;;6.60;96.20;;;;;;5011129;28;20034;-65
2023/01/03 08:19:31;;;;;;;6.32;3.60;;;6.60;96.50;;;;;;5013645;28;20712;-65
2023/01/03 08:21:57;;;;;;;7.32;3.78;;;6.70;96.20;;;;;;5015697;28;20128;-66
2023/01/03 08:24:23;;;;;;;5.13;3.47;;;6.70;96.10;;;;;;5011533;28;20057;-65
2023/01/03 08:26:49;;;;;;;10.30;6.05;;;6.90;96.20;;;;;;5015237;28;20033;-65
2023/01/03 08:29:15;;;;;;;7.63;4.45;;;7.10;96.20;;;;;;5014378;28;20713;-65
2023/01/03 08:31:44;;;;;;;8.20;4.43;;;7.60;94.90;;;;;;5012508;28;20436;-65
2023/01/03 08:34:12;;;;;;;10.13;4.40;;;8.20;94.10;;;;;;5010707;28;20573;-65
2023/01/03 08:36:44;;;;;;;15.20;7.88;;;8.90;92.40;;;;;;5016851;28;20122;-65
2023/01/03 08:39:15;;;;;;;69.97;28.35;;;9.50;91.20;;;;;;4990117;28;20200;-65
2023/01/03 08:41:45;;;;;;;83.72;33.42;;;9.50;90.20;;;;;;5011632;28;20539;-65
2023/01/03 08:44:11;;;;;;;23.27;9.85;;;9.30;90.20;;;;;;5017722;28;20060;-66
2023/01/03 08:46:45;;;;;;;29.88;11.82;;;8.90;90.90;;;;;;5014090;28;20345;-66
2023/01/03 08:49:11;;;;;;;23.88;10.77;;;8.50;91.50;;;;;;5013328;28;20045;-65
2023/01/03 08:51:38;;;;;;;32.25;13.18;;;8.30;91.90;;;;;;5009066;28;20501;-66
2023/01/03 08:54:04;;;;;;;41.88;16.85;;;8.10;92.40;;;;;;4994176;28;20033;-65
2023/01/03 08:56:30;;;;;;;29.33;10.45;;;8.00;92.70;;;;;;5011648;28;20036;-65
2023/01/03 08:58:56;;;;;;;15.45;5.88;;;8.00;92.90;;;;;;5014392;28;20028;-65
2023/01/03 09:01:23;;;;;;;13.50;4.80;;;8.00;93.00;;;;;;5012552;28;20909;-64
2023/01/03 09:03:49;;;;;;;11.73;3.95;;;8.10;93.10;;;;;;5018316;28;20029;-65
2023/01/03 09:06:15;;;;;;;8.38;4.00;;;8.20;93.10;;;;;;5023140;28;20033;-67
2023/01/03 09:08:41;;;;;;;14.35;5.38;;;8.40;92.90;;;;;;5024623;28;20033;-67
2023/01/03 09:11:08;;;;;;;12.00;5.63;;;8.60;92.40;;;;;;5015413;28;20044;-66
2023/01/03 09:13:34;;;;;;;11.73;5.05;;;9.30;91.30;;;;;;5022314;28;20622;-67
2023/01/03 09:16:06;;;;;;;12.63;4.57;;;10.70;87.60;;;;;;5023493;28;20124;-67
2023/01/03 09:18:32;;;;;;;10.55;4.30;;;12.30;78.60;;;;;;5021526;28;20036;-67
2023/01/03 09:20:58;;;;;;;7.20;3.55;;;12.90;75.20;;;;;;5007734;28;20025;-67
2023/01/03 09:23:24;;;;;;;14.88;5.38;;;13.10;73.50;;;;;;5020392;28;20026;-66
2023/01/03 09:25:50;;;;;;;6.10;2.90;;;12.90;74.30;;;;;;5011614;28;20092;-65
2023/01/03 09:28:16;;;;;;;15.68;4.90;;;12.60;74.60;;;;;;5022827;28;20037;-66
2023/01/03 09:30:41;;;;;;;10.30;3.50;;;12.20;77.10;;;;;;5017101;28;20038;-65
2023/01/03 09:33:09;;;;;;;8.20;2.95;;;11.70;78.40;;;;;;5017260;28;20034;-66
2023/01/03 09:35:38;;;;;;;11.10;4.13;;;11.60;82.10;;;;;;5017363;28;20736;-65
2023/01/03 09:38:04;;;;;;;16.70;4.07;;;12.70;76.70;;;;;;5018743;28;20145;-64
2023/01/03 09:40:35;;;;;;;14.45;5.78;;;13.50;72.50;;;;;;5018598;28;20668;-65
2023/01/03 09:43:12;;;;;;;5.35;3.38;;;13.40;71.30;;;;;;5017383;28;20484;-65
2023/01/03 09:45:50;;;;;;;13.65;9.20;;;13.00;73.40;;;;;;5013432;28;20057;-65
2023/01/03 09:48:19;;;;;;;8.55;3.90;;;13.10;74.20;;;;;;5020097;28;20859;-65
2023/01/03 09:50:45;;;;;;;7.85;3.90;;;13.90;70.90;;;;;;5016802;28;20036;-66
2023/01/03 10:05:20;;;;;;;16.57;4.97;;;17.10;57.80;;;;;;5014104;28;20108;-66
2023/01/03 10:07:51;;;;;;;27.05;7.50;;;17.60;57.20;;;;;;5017256;28;20046;-66
2023/01/03 10:10:45;;;;;;;11.82;5.28;;;17.30;56.80;;;;;;5022693;28;20030;-65
2023/01/03 10:13:32;;;;;;;10.60;4.05;;;16.00;58.70;;;;;;5020012;28;20398;-65
2023/01/03 10:16:04;;;;;;;5.78;3.30;;;14.50;64.60;;;;;;5014514;28;20505;-65
2023/01/03 10:19:02;;;;;;;5.95;2.75;;;13.50;67.60;;;;;;5017761;28;20033;-70
2023/01/03 10:21:37;;;;;;;9.75;5.00;;;12.80;71.80;;;;;;4965370;28;20095;-65
2023/01/03 10:24:30;;;;;;;10.88;5.22;;;11.80;75.70;;;;;;5013907;28;20089;-66
2023/01/03 10:27:14;;;;;;;6.38;4.20;;;11.30;78.10;;;;;;5009477;28;20069;-66
2023/01/03 10:29:40;;;;;;;9.48;2.90;;;10.90;80.60;;;;;;5010449;28;20087;-65
2023/01/03 10:32:36;;;;;;;12.13;3.85;;;10.80;82.40;;;;;;5014088;28;20057;-65
2023/01/03 10:35:18;;;;;;;6.05;3.20;;;10.80;83.20;;;;;;5015628;28;20112;-66
2023/01/03 10:37:44;;;;;;;6.72;3.47;;;10.70;84.10;;;;;;5014415;28;20087;-66
2023/01/03 10:40:12;;;;;;;4.28;2.60;;;10.60;84.20;;;;;;5011619;28;20029;-65
2023/01/03 10:42:40;;;;;;;8.23;5.10;;;10.60;84.90;;;;;;5015199;28;20027;-65
2023/01/03 10:45:10;;;;;;;6.35;3.45;;;10.50;85.10;;;;;;5010690;28;20065;-65
2023/01/03 10:47:36;;;;;;;11.23;3.65;;;10.50;85.80;;;;;;5009609;28;20848;-66
2023/01/03 10:50:05;;;;;;;13.00;4.68;;;10.50;86.50;;;;;;5010556;28;20030;-66
2023/01/03 10:52:41;;;;;;;9.52;4.30;;;10.50;86.40;;;;;;5011966;28;20579;-66
2023/01/03 10:55:13;;;;;;;13.90;4.85;;;10.60;86.90;;;;;;5021739;28;20029;-65
2023/01/03 10:58:00;;;;;;;26.10;10.05;;;10.60;86.40;;;;;;5011562;28;20037;-65
2023/01/03 11:00:27;;;;;;;;;;;10.60;85.70;;;;;;5015409;28;20603;-65
2023/01/03 11:02:59;;;;;;;9.18;5.25;;;10.60;86.40;;;;;;5023033;28;19913;-65
2023/01/03 11:05:25;;;;;;;9.82;4.32;;;10.50;86.90;;;;;;5009253;28;20072;-65
2023/01/03 11:07:55;;;;;;;10.05;4.28;;;10.60;86.80;;;;;;5013489;28;20037;-66
2023/01/03 11:10:22;;;;;;;6.32;3.38;;;10.60;85.30;;;;;;5011302;28;20107;-66
2023/01/03 11:12:48;;;;;;;9.23;3.90;;;10.60;85.60;;;;;;4998641;28;20765;-66
2023/01/03 11:15:23;;;;;;;7.95;4.30;;;10.80;84.00;;;;;;5013463;28;20045;-66
2023/01/03 11:17:56;;;;;;;9.93;4.07;;;11.30;82.20;;;;;;5014844;28;20469;-65
2023/01/03 11:20:51;;;;;;;6.65;4.07;;;11.60;79.70;;;;;;4998222;28;20521;-66
2023/01/03 11:23:30;;;;;;;7.65;4.20;;;11.50;80.90;;;;;;4980229;28;20041;-66
2023/01/03 11:26:19;;;;;;;11.98;4.97;;;11.30;81.60;;;;;;5016992;28;20037;-67
2023/01/03 11:28:56;;;;;;;6.45;3.95;;;11.00;82.20;;;;;;5014113;28;20462;-67
2023/01/03 11:31:42;;;;;;;8.43;4.30;;;10.80;83.60;;;;;;5015854;28;20129;-67
2023/01/03 11:34:23;;;;;;;7.85;4.38;;;10.60;84.00;;;;;;5010631;28;20042;-67
2023/01/03 11:36:56;;;;;;;10.30;4.15;;;10.50;84.70;;;;;;5008904;28;20049;-67
2023/01/03 11:39:53;;;;;;;11.50;4.85;;;10.50;85.40;;;;;;5013500;28;20036;-66
2023/01/03 11:42:25;;;;;;;11.93;4.80;;;10.40;84.60;;;;;;5017045;28;20025;-67
2023/01/03 11:44:53;;;;;;;6.90;4.35;;;10.30;85.80;;;;;;5013408;28;20432;-64
2023/01/03 11:47:53;;;;;;;8.85;3.75;;;10.30;86.40;;;;;;5013078;28;20030;-66
2023/01/03 11:50:27;;;;;;;10.90;4.72;;;10.30;85.90;;;;;;5017030;28;20178;-65
2023/01/03 11:53:03;;;;;;;7.78;4.05;;;10.40;86.40;;;;;;5006373;28;20030;-66
2023/01/03 11:55:31;;;;;;;;;;;10.40;85.90;;;;;;5008073;28;20068;-65
2023/01/03 11:58:19;;;;;;;10.52;4.22;;;10.40;84.90;;;;;;5009777;28;19917;-65
2023/01/03 12:01:02;;;;;;;6.90;3.20;;;10.30;84.50;;;;;;5014043;28;20112;-65
2023/01/03 12:03:47;;;;;;;9.48;3.63;;;10.20;86.10;;;;;;5013185;28;20217;-65
2023/01/03 12:06:37;;;;;;;5.70;3.40;;;10.30;85.90;;;;;;5012943;28;20029;-65
2023/01/03 12:09:14;;;;;;;8.82;3.75;;;10.50;85.90;;;;;;5016547;28;20417;-65
2023/01/03 12:11:42;;;;;;;10.02;3.42;;;10.60;85.30;;;;;;5016939;28;20096;-64
2023/01/03 12:14:26;;;;;;;6.05;3.28;;;10.70;84.00;;;;;;4995955;28;20022;-65
2023/01/03 12:17:12;;;;;;;7.85;3.38;;;10.70;83.40;;;;;;5011575;28;20060;-65
2023/01/03 12:19:59;;;;;;;7.70;3.28;;;10.70;82.60;;;;;;5011083;28;20098;-65
2023/01/03 12:22:43;;;;;;;5.57;2.70;;;10.60;82.50;;;;;;4996351;28;20037;-65
2023/01/03 12:25:33;;;;;;;11.43;3.78;;;10.50;82.60;;;;;;5009201;28;20140;-65
2023/01/03 12:28:06;;;;;;;13.15;3.40;;;10.40;82.60;;;;;;5014890;28;20041;-65
2023/01/03 12:30:47;;;;;;;7.97;3.00;;;10.40;82.10;;;;;;5008148;28;20032;-65
2023/01/03 12:33:33;;;;;;;6.03;2.95;;;10.30;82.80;;;;;;5009985;28;20036;-65
2023/01/03 12:36:16;;;;;;;6.82;3.33;;;10.20;82.00;;;;;;5002968;28;20041;-64
2023/01/03 12:38:54;;;;;;;7.60;2.97;;;10.20;83.10;;;;;;5010990;28;20564;-65
2023/01/03 12:41:29;;;;;;;12.38;3.33;;;10.20;83.40;;;;;;5011186;28;20026;-64
2023/01/03 12:44:18;;;;;;;7.20;3.40;;;10.20;83.00;;;;;;5010078;28;20037;-64
2023/01/03 12:46:49;;;;;;;7.93;3.40;;;10.20;83.70;;;;;;5013222;28;20037;-64
2023/01/03 12:49:39;;;;;;;10.90;3.28;;;10.40;83.50;;;;;;5012664;28;20087;-65
2023/01/03 12:52:11;;;;;;;5.70;3.55;;;10.40;83.30;;;;;;5010536;28;20482;-65
2023/01/03 12:54:47;;;;;;;8.20;4.20;;;10.40;83.00;;;;;;5009624;28;20033;-65
2023/01/03 12:57:32;;;;;;;7.68;3.70;;;10.40;82.80;;;;;;5010539;28;20758;-64
2023/01/03 13:00:24;;;;;;;9.27;2.78;;;10.30;82.90;;;;;;5012534;28;20032;-64
2023/01/03 13:02:53;;;;;;;8.65;3.35;;;10.30;82.70;;;;;;5013210;28;20040;-64
2023/01/03 13:05:56;;;;;;;12.07;3.47;;;10.20;83.30;;;;;;5018303;28;20399;-64
2023/01/03 13:08:41;;;;;;;5.78;3.08;;;10.20;82.80;;;;;;5011993;28;20029;-65
2023/01/03 13:11:33;;;;;;;6.10;3.10;;;10.10;83.50;;;;;;5008011;28;20108;-65
2023/01/03 13:14:17;;;;;;;8.05;3.20;;;10.10;83.80;;;;;;5010040;28;20525;-65
2023/01/03 13:16:48;;;;;;;9.45;3.40;;;10.10;83.90;;;;;;5011299;28;20041;-65
2023/01/03 13:19:20;;;;;;;7.28;3.63;;;10.00;83.80;;;;;;5014389;28;20052;-66
2023/01/03 13:21:51;;;;;;;7.65;3.90;;;10.00;83.90;;;;;;5009035;28;20029;-65
2023/01/03 13:24:39;;;;;;;8.20;3.80;;;10.00;83.70;;;;;;5015415;28;20214;-64
2023/01/03 13:27:21;;;;;;;16.67;4.03;;;10.00;83.90;;;;;;5013621;28;20029;-65
2023/01/03 13:29:55;;;;;;;11.38;4.20;;;9.80;84.20;;;;;;5008795;28;20886;-65
2023/01/03 13:32:21;;;;;;;7.75;4.10;;;9.70;85.40;;;;;;5010090;28;20035;-64
2023/01/03 13:34:53;;;;;;;7.93;3.83;;;9.60;85.50;;;;;;5001821;28;20040;-70
2023/01/03 13:37:53;;;;;;;12.82;5.35;;;9.50;86.20;;;;;;5005931;28;20037;-69
2023/01/03 13:40:22;;;;;;;15.77;5.22;;;9.50;86.50;;;;;;4985531;28;20037;-69
2023/01/03 13:43:00;;;;;;;9.70;4.40;;;9.50;86.10;;;;;;5010046;28;20136;-67
2023/01/03 13:45:28;;;;;;;14.07;4.20;;;9.40;86.20;;;;;;5011697;28;20045;-66
2023/01/03 13:47:55;;;;;;;15.68;4.30;;;9.40;86.60;;;;;;5009697;28;20065;-69
2023/01/03 13:50:32;;;;;;;9.98;4.05;;;9.40;87.10;;;;;;5013255;28;20029;-66
2023/01/03 13:53:08;;;;;;;5.10;3.20;;;9.40;87.10;;;;;;5013972;28;20033;-65
2023/01/03 13:55:46;;;;;;;7.78;3.10;;;9.40;86.80;;;;;;5011951;28;20033;-66
2023/01/03 13:58:26;;;;;;;9.45;4.18;;;9.40;86.70;;;;;;5013857;28;20022;-66
2023/01/03 14:01:02;;;;;;;6.78;3.80;;;9.40;86.90;;;;;;5013800;28;20470;-66
2023/01/03 14:03:43;;;;;;;;;;;9.40;87.10;;;;;;5013384;28;20048;-65
2023/01/03 14:06:18;;;;;;;9.48;4.75;;;9.40;87.10;;;;;;5014960;28;19913;-67
2023/01/03 14:09:04;;;;;;;6.37;3.93;;;9.30;87.00;;;;;;5013472;28;20048;-65
2023/01/03 14:11:48;;;;;;;8.52;4.88;;;9.30;87.20;;;;;;5022102;28;20279;-66
2023/01/03 14:14:21;;;;;;;6.93;4.20;;;9.30;87.30;;;;;;5014057;28;20030;-66
2023/01/03 14:16:53;;;;;;;7.78;4.25;;;9.20;87.30;;;;;;5018257;28;20064;-65
2023/01/03 14:19:29;;;;;;;8.90;4.68;;;9.20;87.50;;;;;;5011471;28;20892;-66
2023/01/03 14:22:11;;;;;;;10.98;6.43;;;9.10;87.70;;;;;;5013271;28;20088;-66
2023/01/03 14:24:50;;;;;;;13.65;8.30;;;9.10;88.10;;;;;;5015319;28;20056;-67
2023/01/03 14:27:19;;;;;;;18.45;8.82;;;9.00;88.10;;;;;;5013283;28;20808;-66
2023/01/03 14:29:51;;;;;;;21.63;10.75;;;9.00;88.20;;;;;;5018031;28;20076;-66